LTFELTBJ

Guest
Details From LTFE - MILAS BODRUM
To LTBJ - ADNAN MENDERES
Flight Number -
Tags generated
Created
Modified
Stats Distance 67 nm / 124 km
Max Altitude 0 ft / 0 m
Waypoints 3
Social Downloads 7
Likes 0
Share VATSIM

Download

Looking for another format? Having issues loading an existing format? Contact us
Advertisement - Login to hide

Notes

Basic altitude profile: - Ascent Rate: 2500ft/min - Ascent Speed: 250kts - Cruise Altitude: 35000ft - Cruise Speed: 420kts - Descent Rate: 1500ft/min - Descent Speed: 250kts Options: - Use NATs: yes - Use PACOTS: yes - Use low airways: yes - Use high airways: yes

Route

LTFE BDR LTBJ

ID Type Via Altitude Latitude Longitude Leg Dist Tot Dist Heading (true) Name
O LTFE APT - 0 ft / 0 m 37.25112˚ 27.66535˚ - 0 nm - MILAS BODRUM
BDR NDB - 0 ft / 0 m 37.25333˚ 27.66917˚ 0 nm 0 nm 54° / 54° MILAS BODRUM NDB
O LTBJ APT - 0 ft / 0 m 38.29221˚ 27.15594˚ 66 nm 67 nm 339° / 339° ADNAN MENDERES

Altitude Profile

Advertisement - Login to hide

LTFE

Details ICAO LTFE (BJV)
Name MILAS BODRUM
Region Turkey
Timezone Europe/Istanbul (UTC+3.0)
Stats Elevation 21 ft / 6 m (AMSL)
Location 37.251115° 27.665350°
Runways 1
Magnetic Variation 4.832° E

METAR

LTFE 180720Z VRB02KT 9999 SCT035 BKN100 15/12 Q1017 NOSIG

Decode

TAF

Not found

Departure Runways

ID Width Length Bearing (true) Bearing (mag) Surface Threshold Offset Overrun Length
11 148 ft / 45 m 9,786 ft / 2,983 m 106.68° 101.85° Concrete 0 ft / 0 m 208 ft / 63 m
29 148 ft / 45 m 9,786 ft / 2,983 m 286.70° 281.87° Concrete 0 ft / 0 m 201 ft / 61 m

LTBJ

Details ICAO LTBJ (ADB)
Name ADNAN MENDERES
Region Turkey
Timezone Europe/Istanbul (UTC+3.0)
Stats Elevation 412 ft / 126 m (AMSL)
Location 38.292210° 27.155939°
Runways 2
Magnetic Variation 4.896° E

METAR

LTBJ 180720Z 15003KT 100V180 9999 SCT030 BKN200 10/08 Q1016 NOSIG

Decode

TAF

Not found

Destination Runways

ID Width Length Bearing (true) Bearing (mag) Surface Threshold Offset Overrun Length
16L 147 ft / 45 m 10,635 ft / 3,242 m 166.78° 161.88° Asphalt 0 ft / 0 m 197 ft / 60 m
16R 147 ft / 45 m 10,651 ft / 3,246 m 166.71° 161.81° Concrete 0 ft / 0 m 197 ft / 60 m
34L 147 ft / 45 m 10,651 ft / 3,246 m 346.72° 341.82° Concrete 0 ft / 0 m 197 ft / 60 m
34R 147 ft / 45 m 10,635 ft / 3,242 m 346.79° 341.89° Asphalt 0 ft / 0 m 197 ft / 60 m

Approach Navaids

Runway Type Ident Frequency Range Bearing (true) Bearing (mag) Slope Elevation
16L Localiser IIMR 108.50 MHz 18 nm / 33 km 166.52° 161.62° - 412 ft / 126 m (AMSL)
16L Glidescope IIMR 108.50 MHz 10 nm / 19 km 166.78° 161.89° 3.10° 412 ft / 126 m (AMSL)
34R Localiser IMEN 110.30 MHz 18 nm / 33 km 346.86° 341.96° - 412 ft / 126 m (AMSL)
34R Glidescope IMEN 110.30 MHz 10 nm / 19 km 346.79° 341.89° 3.00° 412 ft / 126 m (AMSL)

Popular Alternatives